createdAt,value
2019-05-02T00:01:00.053Z,11.40
2019-05-02T00:03:27.640Z,11.40
2019-05-02T00:05:55.992Z,11.30
2019-05-02T00:08:23.614Z,11.20
2019-05-02T00:10:51.205Z,11.20
2019-05-02T00:13:18.821Z,11.20
2019-05-02T00:15:46.440Z,11.10
2019-05-02T00:18:14.026Z,11.10
2019-05-02T00:20:42.387Z,11.00
2019-05-02T00:23:10.042Z,11.00
2019-05-02T00:25:37.629Z,10.90
2019-05-02T00:28:07.876Z,11.00
2019-05-02T00:30:34.606Z,11.00
2019-05-02T00:33:01.207Z,10.90
2019-05-02T00:35:28.797Z,10.90
2019-05-02T00:37:57.509Z,10.80
2019-05-02T00:40:25.696Z,10.80
2019-05-02T00:42:53.266Z,10.70
2019-05-02T00:45:24.001Z,10.70
2019-05-02T00:47:47.934Z,10.60
2019-05-02T00:50:14.414Z,10.60
2019-05-02T00:52:42.598Z,10.50
2019-05-02T00:55:10.195Z,10.50
2019-05-02T00:57:37.778Z,10.50
2019-05-02T01:00:05.410Z,10.50
2019-05-02T01:02:35.794Z,10.40
2019-05-02T01:05:03.578Z,10.40
2019-05-02T01:07:30.834Z,10.30
2019-05-02T01:09:58.426Z,10.20
2019-05-02T01:12:26.889Z,10.30
2019-05-02T01:14:53.906Z,10.30
2019-05-02T01:17:21.495Z,10.30
2019-05-02T01:19:51.475Z,10.20
2019-05-02T01:22:17.308Z,10.20
2019-05-02T01:24:44.309Z,10.10
2019-05-02T01:27:18.159Z,10.00
2019-05-02T01:29:45.817Z,10.00
2019-05-02T01:32:13.393Z,9.90
2019-05-02T01:34:43.751Z,9.90
2019-05-02T01:37:12.443Z,9.90
2019-05-02T01:39:42.699Z,9.90
2019-05-02T01:42:06.558Z,9.80
2019-05-02T01:44:36.240Z,9.80
2019-05-02T01:47:01.738Z,9.80
2019-05-02T01:49:29.327Z,9.70
2019-05-02T01:51:56.982Z,9.70
2019-05-02T01:54:24.556Z,9.60
2019-05-02T01:56:52.137Z,9.70
2019-05-02T01:59:20.521Z,9.60
2019-05-02T02:01:53.254Z,9.50
2019-05-02T02:04:20.889Z,9.50
2019-05-02T02:06:45.165Z,9.50
2019-05-02T02:09:13.190Z,9.50
2019-05-02T02:11:40.776Z,9.50
2019-05-02T02:14:12.772Z,9.50
2019-05-02T02:16:39.312Z,9.60
2019-05-02T02:19:04.122Z,9.60
2019-05-02T02:21:36.710Z,9.60
2019-05-02T02:24:07.198Z,9.50
2019-05-02T02:26:34.809Z,9.40
2019-05-02T02:29:03.119Z,9.40
2019-05-02T02:31:30.012Z,9.30
2019-05-02T02:33:57.597Z,9.30
2019-05-02T02:36:31.752Z,9.20
2019-05-02T02:38:52.848Z,9.20
2019-05-02T02:41:20.428Z,9.10
2019-05-02T02:44:07.043Z,9.00
2019-05-02T02:46:37.924Z,9.00
2019-05-02T02:49:02.971Z,9.00
2019-05-02T02:51:30.601Z,9.00
2019-05-02T02:54:03.941Z,8.90
2019-05-02T02:56:26.538Z,9.00
2019-05-02T02:58:54.154Z,9.00
2019-05-02T03:01:29.021Z,9.00
2019-05-02T03:03:49.324Z,8.90
2019-05-02T03:06:16.947Z,8.80
2019-05-02T03:08:48.865Z,8.70
2019-05-02T03:11:22.320Z,8.60
2019-05-02T03:13:53.718Z,8.50
2019-05-02T03:16:22.392Z,8.50
2019-05-02T03:18:49.975Z,8.40
2019-05-02T03:21:20.277Z,8.50
2019-05-02T03:23:45.194Z,8.70
2019-05-02T03:26:14.795Z,8.70
2019-05-02T03:28:41.146Z,8.70
2019-05-02T03:31:23.954Z,8.90
2019-05-02T03:33:51.596Z,8.80
2019-05-02T03:36:05.473Z,8.70
2019-05-02T03:38:35.188Z,8.60
2019-05-02T03:41:01.395Z,8.60
2019-05-02T03:43:29.019Z,8.50
2019-05-02T03:45:56.602Z,8.60
2019-05-02T03:48:25.966Z,8.60
2019-05-02T03:50:51.804Z,8.50
2019-05-02T03:53:25.177Z,8.40
2019-05-02T03:55:46.974Z,8.30
2019-05-02T03:58:16.913Z,8.20
2019-05-02T04:00:43.716Z,8.10
2019-05-02T04:03:11.298Z,8.10
2019-05-02T04:05:40.258Z,8.00
2019-05-02T04:08:19.958Z,7.90
2019-05-02T04:10:44.497Z,7.90
2019-05-02T04:13:12.079Z,7.90
2019-05-02T04:15:39.667Z,7.90
2019-05-02T04:18:08.356Z,7.80
2019-05-02T04:20:35.670Z,7.70
2019-05-02T04:23:03.252Z,7.90
2019-05-02T04:25:34.015Z,8.10
2019-05-02T04:27:59.996Z,8.10
2019-05-02T04:30:27.845Z,8.00
2019-05-02T04:32:56.156Z,8.20
2019-05-02T04:35:28.876Z,8.20
2019-05-02T04:37:50.660Z,8.10
2019-05-02T04:40:18.438Z,8.00
2019-05-02T04:42:51.233Z,8.00
2019-05-02T04:45:24.967Z,7.90
2019-05-02T04:47:42.431Z,8.00
2019-05-02T04:50:18.162Z,8.00
2019-05-02T04:52:38.297Z,8.00
2019-05-02T04:55:17.564Z,8.00
2019-05-02T04:57:37.015Z,8.00
2019-05-02T05:00:06.222Z,8.10
2019-05-02T05:02:34.737Z,8.10
2019-05-02T05:04:55.020Z,8.10
2019-05-02T05:07:22.609Z,8.10
2019-05-02T05:09:57.165Z,8.10
2019-05-02T05:12:19.465Z,8.10
2019-05-02T05:14:47.213Z,8.10
2019-05-02T05:17:13.026Z,8.10
2019-05-02T05:19:40.616Z,8.20
2019-05-02T05:22:11.779Z,8.20
2019-05-02T05:24:42.326Z,8.20
2019-05-02T05:27:08.278Z,8.20
2019-05-02T05:29:34.957Z,8.20
2019-05-02T05:32:05.576Z,8.20
2019-05-02T05:34:32.628Z,8.20
2019-05-02T05:36:58.337Z,8.30
2019-05-02T05:39:28.047Z,8.50
2019-05-02T05:41:53.545Z,8.50
2019-05-02T05:44:23.305Z,8.40
2019-05-02T05:46:49.483Z,8.50
2019-05-02T05:49:20.342Z,8.40
2019-05-02T05:51:44.670Z,8.30
2019-05-02T05:54:13.069Z,8.40
2019-05-02T05:56:43.228Z,8.40
2019-05-02T05:59:08.247Z,8.40
2019-05-02T06:01:37.887Z,8.40
2019-05-02T06:04:03.459Z,8.40
2019-05-02T06:06:31.041Z,8.60
2019-05-02T06:08:58.681Z,8.60
2019-05-02T06:11:26.263Z,8.80
2019-05-02T06:13:53.854Z,8.90
2019-05-02T06:16:21.487Z,8.90
2019-05-02T06:18:51.864Z,9.00
2019-05-02T06:21:19.435Z,9.10
2019-05-02T06:23:47.539Z,9.10
2019-05-02T06:26:15.625Z,9.10
2019-05-02T06:28:43.289Z,9.10
2019-05-02T06:31:11.098Z,9.30
2019-05-02T06:33:38.679Z,9.20
2019-05-02T06:36:06.267Z,9.30
2019-05-02T06:38:34.878Z,9.30
2019-05-02T06:41:03.233Z,9.60
2019-05-02T06:43:30.815Z,9.60
2019-05-02T06:45:58.441Z,9.70
2019-05-02T06:48:26.028Z,9.70
2019-05-02T06:50:53.624Z,9.70
2019-05-02T06:53:21.264Z,9.80
2019-05-02T06:55:48.845Z,9.90
2019-05-02T06:58:17.202Z,10.10
2019-05-02T07:00:56.641Z,10.10
2019-05-02T07:03:12.431Z,10.10
2019-05-02T07:05:40.023Z,10.10
2019-05-02T07:08:11.932Z,10.20
2019-05-02T07:10:44.573Z,10.20
2019-05-02T07:13:10.904Z,10.30
2019-05-02T07:15:48.560Z,10.30
2019-05-02T07:18:13.971Z,10.40
2019-05-02T07:20:42.541Z,10.50
2019-05-02T07:23:10.474Z,10.70
2019-05-02T07:25:39.133Z,10.70
2019-05-02T07:28:09.451Z,10.80
2019-05-02T07:30:35.025Z,10.90
2019-05-02T07:33:01.140Z,10.90
2019-05-02T07:35:28.033Z,11.00
2019-05-02T07:37:56.922Z,11.30
2019-05-02T07:40:25.283Z,11.40
2019-05-02T07:42:52.866Z,11.40
2019-05-02T07:45:20.514Z,11.50
2019-05-02T07:47:48.106Z,11.70
2019-05-02T07:50:15.699Z,11.80
2019-05-02T07:52:43.812Z,11.80
2019-05-02T07:55:11.401Z,11.90
2019-05-02T07:57:39.762Z,11.90
2019-05-02T08:00:07.867Z,11.90
2019-05-02T08:02:35.464Z,12.00
2019-05-02T08:05:03.054Z,12.10
2019-05-02T08:07:34.271Z,12.10
2019-05-02T08:09:59.499Z,12.30
2019-05-02T08:12:27.654Z,12.30
2019-05-02T08:14:55.329Z,12.30
2019-05-02T08:17:22.910Z,12.50
2019-05-02T08:19:50.496Z,12.50
2019-05-02T08:22:18.953Z,12.60
2019-05-02T08:24:46.552Z,12.60
2019-05-02T08:27:16.763Z,12.70
2019-05-02T08:29:45.197Z,12.80
2019-05-02T08:32:12.777Z,12.80
2019-05-02T08:34:40.367Z,12.80
2019-05-02T08:37:08.793Z,13.10
2019-05-02T08:39:36.382Z,13.10
2019-05-02T08:42:04.325Z,13.10
2019-05-02T08:44:32.193Z,13.20
2019-05-02T08:46:59.782Z,13.30
2019-05-02T08:49:27.365Z,13.30
2019-05-02T08:51:55.790Z,13.60
2019-05-02T08:54:23.385Z,13.60
2019-05-02T08:56:53.501Z,13.70
2019-05-02T08:59:19.858Z,14.00
2019-05-02T09:01:49.407Z,13.90
2019-05-02T09:04:15.724Z,14.30
2019-05-02T09:06:46.010Z,14.30
2019-05-02T09:09:10.913Z,14.40
2019-05-02T09:11:39.271Z,14.70
2019-05-02T09:14:06.917Z,14.70
2019-05-02T09:16:34.509Z,14.80
2019-05-02T09:19:02.739Z,14.90
2019-05-02T09:21:34.321Z,15.00
2019-05-02T09:23:57.339Z,15.10
2019-05-02T09:26:35.003Z,15.20
2019-05-02T09:28:56.393Z,15.30
2019-05-02T09:31:20.146Z,15.40
2019-05-02T09:33:47.731Z,15.40
2019-05-02T09:36:15.377Z,15.40
2019-05-02T09:38:42.993Z,15.40
2019-05-02T09:41:18.437Z,15.50
2019-05-02T09:43:42.278Z,15.80
2019-05-02T09:46:12.953Z,15.80
2019-05-02T09:48:35.590Z,15.80
2019-05-02T09:51:11.589Z,16.00
2019-05-02T09:53:32.477Z,15.90
2019-05-02T09:56:02.160Z,16.30
2019-05-02T09:58:28.466Z,16.30
2019-05-02T10:00:56.051Z,16.40
2019-05-02T10:03:24.408Z,16.60
2019-05-02T10:05:52.396Z,16.60
2019-05-02T10:08:19.640Z,16.70
2019-05-02T10:10:47.826Z,16.90
2019-05-02T10:13:15.992Z,17.00
2019-05-02T10:15:43.573Z,17.10
2019-05-02T10:18:13.755Z,17.20
2019-05-02T10:20:38.837Z,17.20
2019-05-02T10:23:06.445Z,17.30
2019-05-02T10:25:38.626Z,17.30
2019-05-02T10:28:02.759Z,17.40
2019-05-02T10:30:32.868Z,17.50
2019-05-02T10:32:58.011Z,17.70
2019-05-02T10:35:28.158Z,17.90
2019-05-02T10:37:54.172Z,18.10
2019-05-02T10:40:22.817Z,18.50
2019-05-02T10:42:52.241Z,18.50
2019-05-02T10:45:18.030Z,18.60
2019-05-02T10:47:45.620Z,18.60
2019-05-02T10:50:13.259Z,18.70
2019-05-02T10:52:42.491Z,18.70
2019-05-02T10:55:08.444Z,18.80
2019-05-02T10:57:36.846Z,19.00
2019-05-02T11:00:07.129Z,18.90
2019-05-02T11:02:52.792Z,19.00
2019-05-02T11:05:24.656Z,19.00
2019-05-02T11:07:48.769Z,18.90
2019-05-02T11:10:16.423Z,18.90
2019-05-02T11:12:47.330Z,18.90
2019-05-02T11:15:14.829Z,18.90
2019-05-02T11:17:43.260Z,18.80
2019-05-02T11:20:12.307Z,18.70
2019-05-02T11:22:38.443Z,18.80
2019-05-02T11:25:06.853Z,19.10
2019-05-02T11:27:34.439Z,19.10
2019-05-02T11:30:02.717Z,19.20
2019-05-02T11:32:32.548Z,19.30
2019-05-02T11:34:58.043Z,19.20
2019-05-02T11:37:26.923Z,19.30
2019-05-02T11:40:00.485Z,19.40
2019-05-02T11:42:27.171Z,19.30
2019-05-02T11:44:52.946Z,19.30
2019-05-02T11:47:24.878Z,19.40
2019-05-02T11:49:53.922Z,19.40
2019-05-02T11:52:16.530Z,19.40
2019-05-02T11:54:48.339Z,19.40
2019-05-02T11:57:11.790Z,19.40
2019-05-02T11:59:39.337Z,19.30
2019-05-02T12:02:22.540Z,19.10
2019-05-02T12:04:52.485Z,19.10
2019-05-02T12:07:17.719Z,19.10
2019-05-02T12:09:52.061Z,19.10
2019-05-02T12:12:15.662Z,19.00
2019-05-02T12:14:41.877Z,19.00
2019-05-02T12:17:08.939Z,19.00
2019-05-02T12:19:37.305Z,19.10
2019-05-02T12:22:07.194Z,19.00
2019-05-02T12:24:36.470Z,19.10
2019-05-02T12:27:02.531Z,19.00
2019-05-02T12:29:28.450Z,19.10
2019-05-02T12:31:56.500Z,19.00
2019-05-02T12:34:23.675Z,19.10
2019-05-02T12:36:52.315Z,19.30
2019-05-02T12:39:19.675Z,19.70
2019-05-02T12:41:47.530Z,19.60
2019-05-02T12:44:14.849Z,19.70
2019-05-02T12:46:42.479Z,19.80
2019-05-02T12:49:23.956Z,19.90
2019-05-02T12:51:37.664Z,20.00
2019-05-02T12:54:06.101Z,20.10
2019-05-02T12:56:33.693Z,20.00
2019-05-02T12:59:02.423Z,20.00
2019-05-02T13:01:30.059Z,20.00
2019-05-02T13:04:06.398Z,19.90
2019-05-02T13:06:36.966Z,19.90
2019-05-02T13:09:03.065Z,20.00
2019-05-02T13:11:44.390Z,20.20
2019-05-02T13:14:17.745Z,20.20
2019-05-02T13:16:37.325Z,20.30
2019-05-02T13:19:06.256Z,20.20
2019-05-02T13:21:42.259Z,20.20
2019-05-02T13:24:07.542Z,20.20
2019-05-02T13:26:32.048Z,20.20
2019-05-02T13:28:58.289Z,20.20
2019-05-02T13:31:32.162Z,20.10
2019-05-02T13:34:01.713Z,20.00
2019-05-02T13:36:39.429Z,20.00
2019-05-02T13:39:07.889Z,20.00
2019-05-02T13:41:35.486Z,20.00
2019-05-02T13:44:03.840Z,20.20
2019-05-02T13:46:32.263Z,20.20
2019-05-02T13:48:59.067Z,20.20
2019-05-02T13:51:26.663Z,20.10
2019-05-02T13:53:54.337Z,20.00
2019-05-02T13:56:22.102Z,20.00
2019-05-02T13:58:51.870Z,19.90
2019-05-02T14:01:18.402Z,19.80
2019-05-02T14:03:48.670Z,19.70
2019-05-02T14:06:16.261Z,19.60
2019-05-02T14:08:44.570Z,19.60
2019-05-02T14:11:31.728Z,19.50
2019-05-02T14:13:57.839Z,19.50
2019-05-02T14:16:26.194Z,19.50
2019-05-02T14:18:53.787Z,19.50
2019-05-02T14:21:22.467Z,19.60
2019-05-02T14:23:51.696Z,19.50
2019-05-02T14:26:29.702Z,19.60
2019-05-02T14:28:45.824Z,19.60
2019-05-02T14:31:13.440Z,19.70
2019-05-02T14:33:42.317Z,19.60
2019-05-02T14:36:09.056Z,19.70
2019-05-02T14:38:36.634Z,19.70
2019-05-02T14:41:06.664Z,19.60
2019-05-02T14:43:49.643Z,19.60
2019-05-02T14:46:17.963Z,19.50
2019-05-02T14:48:45.415Z,19.60
2019-05-02T14:51:16.658Z,19.70
2019-05-02T14:53:39.944Z,19.80
2019-05-02T14:56:12.160Z,19.80
2019-05-02T14:58:39.091Z,19.80
2019-05-02T15:01:05.652Z,19.70
2019-05-02T15:03:33.257Z,19.60
2019-05-02T15:06:04.069Z,19.50
2019-05-02T15:08:28.809Z,19.40
2019-05-02T15:10:56.732Z,19.30
2019-05-02T15:13:24.039Z,19.30
2019-05-02T15:15:53.014Z,19.20
2019-05-02T15:18:19.220Z,19.20
2019-05-02T15:20:46.872Z,19.30
2019-05-02T15:23:19.596Z,19.10
2019-05-02T15:25:47.126Z,19.10
2019-05-02T15:28:12.953Z,18.90
2019-05-02T15:30:44.833Z,19.00
2019-05-02T15:33:06.802Z,19.00
2019-05-02T15:35:38.166Z,19.00
2019-05-02T15:38:06.938Z,18.60
2019-05-02T15:40:43.348Z,18.60
2019-05-02T15:43:08.953Z,18.10
2019-05-02T15:45:31.943Z,18.10
2019-05-02T15:47:57.721Z,17.90
2019-05-02T15:50:26.189Z,17.70
2019-05-02T15:52:57.185Z,17.60
2019-05-02T15:55:21.986Z,17.50
2019-05-02T15:57:49.445Z,17.30
2019-05-02T16:00:24.549Z,17.10
2019-05-02T16:02:45.034Z,17.00
2019-05-02T16:05:13.451Z,16.90
2019-05-02T16:07:43.233Z,16.90
2019-05-02T16:10:08.644Z,16.70
2019-05-02T16:12:37.073Z,16.50
2019-05-02T16:15:13.004Z,16.40
2019-05-02T16:17:33.430Z,16.40
2019-05-02T16:20:07.587Z,16.30
2019-05-02T16:22:28.706Z,16.30
2019-05-02T16:24:56.725Z,16.30
2019-05-02T16:27:26.758Z,16.20
2019-05-02T16:29:51.533Z,16.20
2019-05-02T16:32:35.770Z,16.10
2019-05-02T16:34:59.152Z,16.10
2019-05-02T16:37:26.740Z,16.00
2019-05-02T16:39:54.402Z,16.00
2019-05-02T16:42:22.751Z,15.90
2019-05-02T16:44:49.611Z,15.80
2019-05-02T16:47:17.284Z,15.70
2019-05-02T16:49:47.922Z,15.60
2019-05-02T16:52:13.143Z,15.60
2019-05-02T16:54:41.885Z,15.60
2019-05-02T16:57:07.728Z,15.60
2019-05-02T16:59:35.307Z,15.50
2019-05-02T17:02:07.519Z,15.50
2019-05-02T17:04:31.943Z,15.40
2019-05-02T17:07:02.221Z,15.30
2019-05-02T17:09:33.809Z,15.20
2019-05-02T17:12:01.973Z,15.10
2019-05-02T17:14:28.366Z,15.10
2019-05-02T17:16:56.785Z,15.00
2019-05-02T17:19:26.091Z,15.00
2019-05-02T17:21:56.223Z,15.00
2019-05-02T17:24:24.605Z,14.90
2019-05-02T17:26:47.984Z,15.00
2019-05-02T17:29:16.442Z,15.00
2019-05-02T17:31:44.798Z,14.90
2019-05-02T17:34:14.801Z,14.90
2019-05-02T17:36:39.971Z,14.90
2019-05-02T17:39:08.329Z,14.80
2019-05-02T17:41:37.054Z,14.80
2019-05-02T17:44:03.249Z,14.80
2019-05-02T17:46:30.535Z,14.90
2019-05-02T17:48:58.121Z,14.80
2019-05-02T17:51:33.882Z,14.70
2019-05-02T17:53:59.219Z,14.60
2019-05-02T17:56:26.803Z,14.40
2019-05-02T17:58:58.347Z,14.30
2019-05-02T18:01:26.475Z,14.30
2019-05-02T18:03:52.056Z,14.20
2019-05-02T18:06:29.793Z,14.10
2019-05-02T18:08:46.290Z,14.20
2019-05-02T18:11:13.338Z,14.00
2019-05-02T18:13:42.340Z,14.00
2019-05-02T18:16:15.130Z,13.90
2019-05-02T18:18:37.450Z,13.80
2019-05-02T18:21:03.810Z,13.70
2019-05-02T18:23:32.234Z,13.70
2019-05-02T18:26:04.428Z,13.70
2019-05-02T18:28:27.453Z,13.80
2019-05-02T18:30:57.292Z,13.70
2019-05-02T18:33:22.762Z,13.80
2019-05-02T18:35:50.252Z,13.70
2019-05-02T18:38:20.987Z,13.60
2019-05-02T18:40:45.476Z,13.70
2019-05-02T18:43:13.056Z,13.70
2019-05-02T18:45:42.581Z,13.60
2019-05-02T18:48:09.099Z,13.60
2019-05-02T18:50:44.453Z,13.50
2019-05-02T18:53:05.108Z,13.50
2019-05-02T18:55:32.689Z,13.50
2019-05-02T18:58:03.805Z,13.40
2019-05-02T19:00:35.538Z,13.40
2019-05-02T19:02:56.606Z,13.30
2019-05-02T19:05:26.415Z,13.30
2019-05-02T19:07:56.021Z,13.20
2019-05-02T19:10:20.294Z,13.20
2019-05-02T19:12:47.873Z,13.20
2019-05-02T19:15:16.642Z,13.10
2019-05-02T19:17:44.592Z,13.10
2019-05-02T19:20:23.877Z,13.10
2019-05-02T19:22:56.571Z,13.10
2019-05-02T19:25:19.047Z,13.10
2019-05-02T19:27:52.011Z,13.00
2019-05-02T19:30:18.826Z,13.00
2019-05-02T19:32:45.002Z,13.00
2019-05-02T19:35:12.979Z,12.90
2019-05-02T19:37:46.073Z,12.90
2019-05-02T19:40:08.144Z,12.90
2019-05-02T19:42:36.543Z,12.80
2019-05-02T19:45:11.481Z,12.80
2019-05-02T19:47:32.482Z,12.80
2019-05-02T19:50:02.932Z,12.80
2019-05-02T19:52:37.187Z,12.80
2019-05-02T19:54:58.791Z,12.80
2019-05-02T19:57:26.364Z,12.80
2019-05-02T19:59:52.480Z,12.70
2019-05-02T20:02:19.680Z,13.00
2019-05-02T20:04:48.344Z,13.00
2019-05-02T20:07:15.930Z,13.00
2019-05-02T20:09:47.207Z,13.00
2019-05-02T20:12:15.486Z,12.90
2019-05-02T20:14:46.065Z,12.90
2019-05-02T20:17:07.455Z,12.80
2019-05-02T20:19:36.245Z,13.00
2019-05-02T20:22:06.765Z,13.00
2019-05-02T20:24:49.198Z,12.90
2019-05-02T20:27:14.321Z,12.80
2019-05-02T20:29:42.631Z,12.80
2019-05-02T20:32:10.292Z,12.80
2019-05-02T20:34:38.652Z,12.80
2019-05-02T20:37:06.919Z,12.80
2019-05-02T20:39:34.533Z,12.80
2019-05-02T20:42:02.667Z,12.70
2019-05-02T20:44:29.750Z,12.70
2019-05-02T20:46:58.002Z,12.60
2019-05-02T20:49:26.382Z,12.60
2019-05-02T20:51:54.758Z,12.60
2019-05-02T20:54:23.226Z,12.50
2019-05-02T20:56:51.949Z,12.50
2019-05-02T20:59:18.459Z,12.60
2019-05-02T21:01:46.123Z,12.50
2019-05-02T21:04:13.729Z,12.50
2019-05-02T21:06:44.304Z,12.50
2019-05-02T21:09:12.096Z,12.50
2019-05-02T21:11:39.536Z,12.50
2019-05-02T21:14:07.157Z,12.50
2019-05-02T21:16:34.818Z,12.40
2019-05-02T21:19:02.427Z,12.40
2019-05-02T21:21:30.045Z,12.40
2019-05-02T21:23:57.722Z,12.40
2019-05-02T21:26:25.320Z,12.50
2019-05-02T21:28:52.935Z,12.50
2019-05-02T21:31:22.390Z,12.50
2019-05-02T21:33:48.203Z,12.50
2019-05-02T21:36:15.810Z,12.50
2019-05-02T21:38:43.466Z,12.40
2019-05-02T21:41:11.100Z,12.40
2019-05-02T21:43:38.686Z,12.30
2019-05-02T21:46:06.342Z,12.30
2019-05-02T21:48:34.721Z,12.30
2019-05-02T21:51:12.167Z,12.30
2019-05-02T21:53:58.447Z,12.30
2019-05-02T21:56:40.004Z,12.30
2019-05-02T21:59:08.371Z,12.20
2019-05-02T22:01:42.328Z,12.30
2019-05-02T22:04:09.765Z,12.30
2019-05-02T22:06:37.383Z,12.30
2019-05-02T22:09:04.987Z,12.40
2019-05-02T22:11:32.656Z,12.40
2019-05-02T22:14:02.223Z,12.60
2019-05-02T22:16:27.858Z,12.60
2019-05-02T22:18:56.848Z,12.50
2019-05-02T22:21:25.225Z,12.40
2019-05-02T22:23:53.599Z,12.40
2019-05-02T22:26:22.096Z,12.30
2019-05-02T22:28:49.958Z,12.30
2019-05-02T22:31:18.341Z,12.20
2019-05-02T22:33:46.749Z,12.20
2019-05-02T22:36:14.359Z,12.20
2019-05-02T22:39:01.970Z,12.20
2019-05-02T22:41:27.547Z,12.20
2019-05-02T22:43:55.160Z,12.10
2019-05-02T22:46:42.888Z,12.10
2019-05-02T22:49:09.355Z,12.00
2019-05-02T22:51:37.732Z,12.00
2019-05-02T22:54:06.148Z,12.00
2019-05-02T22:56:33.772Z,11.90
2019-05-02T22:59:02.195Z,11.90
2019-05-02T23:01:29.034Z,11.90
2019-05-02T23:03:56.639Z,12.10
2019-05-02T23:06:24.259Z,12.10
2019-05-02T23:08:52.467Z,12.10
2019-05-02T23:11:21.868Z,12.00
2019-05-02T23:13:48.647Z,12.00
2019-05-02T23:16:16.303Z,12.00
2019-05-02T23:18:43.912Z,12.00
2019-05-02T23:21:12.720Z,12.00
2019-05-02T23:23:39.165Z,12.00
2019-05-02T23:26:09.283Z,12.00
2019-05-02T23:28:36.893Z,12.10
2019-05-02T23:31:05.311Z,12.00
2019-05-02T23:33:51.638Z,12.00
2019-05-02T23:36:18.484Z,12.00
2019-05-02T23:38:46.102Z,11.90
2019-05-02T23:41:13.715Z,12.00
2019-05-02T23:43:41.702Z,12.20
2019-05-02T23:46:08.974Z,12.10
2019-05-02T23:48:37.389Z,12.00
2019-05-02T23:51:05.925Z,12.00
2019-05-02T23:53:33.532Z,12.00
2019-05-02T23:56:01.148Z,11.90
2019-05-02T23:58:31.530Z,11.90
